sensor_id;sensor_type;location;lat;lon;timestamp;P1;durP1;ratioP1;P2;durP2;ratioP2
16531;SDS011;8378;57.698;11.958;2022-12-18T00:01:46;5.38;;;4.50;;
16531;SDS011;8378;57.698;11.958;2022-12-18T00:04:21;4.97;;;4.22;;
16531;SDS011;8378;57.698;11.958;2022-12-18T00:06:48;5.53;;;4.43;;
16531;SDS011;8378;57.698;11.958;2022-12-18T00:09:14;5.25;;;4.50;;
16531;SDS011;8378;57.698;11.958;2022-12-18T00:11:40;5.05;;;4.32;;
16531;SDS011;8378;57.698;11.958;2022-12-18T00:14:05;6.25;;;4.60;;
16531;SDS011;8378;57.698;11.958;2022-12-18T00:16:31;5.65;;;4.65;;
16531;SDS011;8378;57.698;11.958;2022-12-18T00:19:00;5.82;;;4.63;;
16531;SDS011;8378;57.698;11.958;2022-12-18T00:21:26;5.63;;;4.88;;
16531;SDS011;8378;57.698;11.958;2022-12-18T00:23:53;6.47;;;5.03;;
16531;SDS011;8378;57.698;11.958;2022-12-18T00:26:20;5.40;;;4.30;;
16531;SDS011;8378;57.698;11.958;2022-12-18T00:28:50;6.15;;;4.57;;
16531;SDS011;8378;57.698;11.958;2022-12-18T00:31:18;7.07;;;4.80;;
16531;SDS011;8378;57.698;11.958;2022-12-18T00:33:45;5.50;;;4.55;;
16531;SDS011;8378;57.698;11.958;2022-12-18T00:36:15;5.38;;;4.70;;
16531;SDS011;8378;57.698;11.958;2022-12-18T00:38:44;4.57;;;3.95;;
16531;SDS011;8378;57.698;11.958;2022-12-18T00:41:12;6.55;;;4.70;;
16531;SDS011;8378;57.698;11.958;2022-12-18T00:43:59;5.55;;;4.30;;
16531;SDS011;8378;57.698;11.958;2022-12-18T00:46:24;4.88;;;4.35;;
16531;SDS011;8378;57.698;11.958;2022-12-18T00:48:50;5.45;;;4.55;;
16531;SDS011;8378;57.698;11.958;2022-12-18T00:51:15;5.50;;;4.47;;
16531;SDS011;8378;57.698;11.958;2022-12-18T00:53:41;5.07;;;4.45;;
16531;SDS011;8378;57.698;11.958;2022-12-18T00:56:06;5.63;;;4.47;;
16531;SDS011;8378;57.698;11.958;2022-12-18T00:58:35;4.50;;;3.97;;
16531;SDS011;8378;57.698;11.958;2022-12-18T01:01:00;5.38;;;4.32;;
16531;SDS011;8378;57.698;11.958;2022-12-18T01:03:28;5.50;;;4.32;;
16531;SDS011;8378;57.698;11.958;2022-12-18T01:05:53;4.95;;;4.25;;
16531;SDS011;8378;57.698;11.958;2022-12-18T01:08:19;5.18;;;4.32;;
16531;SDS011;8378;57.698;11.958;2022-12-18T01:10:44;5.85;;;4.63;;
16531;SDS011;8378;57.698;11.958;2022-12-18T01:13:10;5.72;;;4.70;;
16531;SDS011;8378;57.698;11.958;2022-12-18T01:15:35;4.97;;;3.88;;
16531;SDS011;8378;57.698;11.958;2022-12-18T01:18:01;5.40;;;4.40;;
16531;SDS011;8378;57.698;11.958;2022-12-18T01:20:30;5.00;;;4.50;;
16531;SDS011;8378;57.698;11.958;2022-12-18T01:22:56;4.53;;;4.03;;
16531;SDS011;8378;57.698;11.958;2022-12-18T01:25:21;5.28;;;4.38;;
16531;SDS011;8378;57.698;11.958;2022-12-18T01:27:47;4.65;;;4.20;;
16531;SDS011;8378;57.698;11.958;2022-12-18T01:30:12;5.15;;;4.28;;
16531;SDS011;8378;57.698;11.958;2022-12-18T01:32:38;5.13;;;4.30;;
16531;SDS011;8378;57.698;11.958;2022-12-18T01:35:04;5.38;;;4.72;;
16531;SDS011;8378;57.698;11.958;2022-12-18T01:37:30;5.05;;;4.30;;
16531;SDS011;8378;57.698;11.958;2022-12-18T01:39:55;4.80;;;4.10;;
16531;SDS011;8378;57.698;11.958;2022-12-18T01:42:21;5.10;;;4.20;;
16531;SDS011;8378;57.698;11.958;2022-12-18T01:47:18;4.97;;;3.90;;
16531;SDS011;8378;57.698;11.958;2022-12-18T01:50:08;5.65;;;4.35;;
16531;SDS011;8378;57.698;11.958;2022-12-18T01:52:49;4.82;;;4.13;;
16531;SDS011;8378;57.698;11.958;2022-12-18T01:55:20;5.07;;;4.45;;
16531;SDS011;8378;57.698;11.958;2022-12-18T01:57:49;5.03;;;4.35;;
16531;SDS011;8378;57.698;11.958;2022-12-18T02:00:19;4.65;;;4.10;;
16531;SDS011;8378;57.698;11.958;2022-12-18T02:02:47;4.45;;;3.60;;
16531;SDS011;8378;57.698;11.958;2022-12-18T02:05:17;5.10;;;4.50;;
16531;SDS011;8378;57.698;11.958;2022-12-18T02:08:10;4.78;;;4.15;;
16531;SDS011;8378;57.698;11.958;2022-12-18T02:10:46;4.22;;;3.80;;
16531;SDS011;8378;57.698;11.958;2022-12-18T02:18:55;4.90;;;3.80;;
16531;SDS011;8378;57.698;11.958;2022-12-18T02:21:36;5.00;;;4.05;;
16531;SDS011;8378;57.698;11.958;2022-12-18T02:24:38;4.85;;;3.92;;
16531;SDS011;8378;57.698;11.958;2022-12-18T02:27:19;5.72;;;4.13;;
16531;SDS011;8378;57.698;11.958;2022-12-18T02:29:47;4.50;;;3.70;;
16531;SDS011;8378;57.698;11.958;2022-12-18T02:32:18;5.22;;;4.07;;
16531;SDS011;8378;57.698;11.958;2022-12-18T02:34:49;6.28;;;3.85;;
16531;SDS011;8378;57.698;11.958;2022-12-18T02:37:17;4.72;;;3.50;;
16531;SDS011;8378;57.698;11.958;2022-12-18T02:39:46;4.72;;;3.88;;
16531;SDS011;8378;57.698;11.958;2022-12-18T02:42:13;5.38;;;4.00;;
16531;SDS011;8378;57.698;11.958;2022-12-18T02:44:41;5.07;;;3.92;;
16531;SDS011;8378;57.698;11.958;2022-12-18T02:47:13;4.53;;;4.00;;
16531;SDS011;8378;57.698;11.958;2022-12-18T02:55:44;4.43;;;3.58;;
16531;SDS011;8378;57.698;11.958;2022-12-18T03:00:47;4.80;;;3.65;;
16531;SDS011;8378;57.698;11.958;2022-12-18T03:03:28;4.38;;;3.35;;
16531;SDS011;8378;57.698;11.958;2022-12-18T03:09:10;3.85;;;3.40;;
16531;SDS011;8378;57.698;11.958;2022-12-18T03:11:41;4.53;;;3.35;;
16531;SDS011;8378;57.698;11.958;2022-12-18T03:14:30;4.15;;;3.58;;
16531;SDS011;8378;57.698;11.958;2022-12-18T03:17:00;4.20;;;3.40;;
16531;SDS011;8378;57.698;11.958;2022-12-18T03:19:28;4.63;;;3.75;;
16531;SDS011;8378;57.698;11.958;2022-12-18T03:21:57;3.33;;;3.00;;
16531;SDS011;8378;57.698;11.958;2022-12-18T03:24:26;4.40;;;3.35;;
16531;SDS011;8378;57.698;11.958;2022-12-18T03:26:55;3.83;;;3.35;;
16531;SDS011;8378;57.698;11.958;2022-12-18T03:32:06;4.00;;;3.45;;
16531;SDS011;8378;57.698;11.958;2022-12-18T03:34:35;4.32;;;3.60;;
16531;SDS011;8378;57.698;11.958;2022-12-18T03:37:04;4.18;;;3.47;;
16531;SDS011;8378;57.698;11.958;2022-12-18T03:39:31;3.85;;;3.45;;
16531;SDS011;8378;57.698;11.958;2022-12-18T03:53:00;4.97;;;3.50;;
16531;SDS011;8378;57.698;11.958;2022-12-18T03:55:52;4.55;;;3.60;;
16531;SDS011;8378;57.698;11.958;2022-12-18T03:58:21;5.15;;;3.67;;
16531;SDS011;8378;57.698;11.958;2022-12-18T04:00:50;4.68;;;3.53;;
16531;SDS011;8378;57.698;11.958;2022-12-18T04:03:18;4.32;;;3.42;;
16531;SDS011;8378;57.698;11.958;2022-12-18T04:05:45;4.65;;;3.65;;
16531;SDS011;8378;57.698;11.958;2022-12-18T04:08:12;4.30;;;3.55;;
16531;SDS011;8378;57.698;11.958;2022-12-18T04:10:38;4.70;;;3.88;;
16531;SDS011;8378;57.698;11.958;2022-12-18T04:13:04;4.90;;;3.75;;
16531;SDS011;8378;57.698;11.958;2022-12-18T04:15:31;4.60;;;3.90;;
16531;SDS011;8378;57.698;11.958;2022-12-18T04:17:59;4.78;;;3.53;;
16531;SDS011;8378;57.698;11.958;2022-12-18T04:20:24;4.53;;;3.42;;
16531;SDS011;8378;57.698;11.958;2022-12-18T04:22:50;4.53;;;3.33;;
16531;SDS011;8378;57.698;11.958;2022-12-18T04:25:16;4.07;;;3.42;;
16531;SDS011;8378;57.698;11.958;2022-12-18T04:27:41;4.28;;;3.85;;
16531;SDS011;8378;57.698;11.958;2022-12-18T04:30:07;4.05;;;3.40;;
16531;SDS011;8378;57.698;11.958;2022-12-18T04:32:33;3.65;;;3.20;;
16531;SDS011;8378;57.698;11.958;2022-12-18T04:34:59;5.03;;;3.30;;
16531;SDS011;8378;57.698;11.958;2022-12-18T04:37:25;4.20;;;3.80;;
16531;SDS011;8378;57.698;11.958;2022-12-18T04:39:50;3.70;;;3.10;;
16531;SDS011;8378;57.698;11.958;2022-12-18T04:42:16;4.18;;;3.38;;
16531;SDS011;8378;57.698;11.958;2022-12-18T04:44:41;4.38;;;3.28;;
16531;SDS011;8378;57.698;11.958;2022-12-18T04:47:07;3.80;;;3.17;;
16531;SDS011;8378;57.698;11.958;2022-12-18T04:49:32;4.47;;;3.45;;
16531;SDS011;8378;57.698;11.958;2022-12-18T04:51:58;4.68;;;3.67;;
16531;SDS011;8378;57.698;11.958;2022-12-18T04:54:24;3.55;;;3.15;;
16531;SDS011;8378;57.698;11.958;2022-12-18T04:56:50;4.85;;;3.13;;
16531;SDS011;8378;57.698;11.958;2022-12-18T04:59:16;3.75;;;3.20;;
16531;SDS011;8378;57.698;11.958;2022-12-18T05:01:41;4.22;;;3.08;;
16531;SDS011;8378;57.698;11.958;2022-12-18T05:04:07;3.33;;;3.00;;
16531;SDS011;8378;57.698;11.958;2022-12-18T05:06:32;3.20;;;2.90;;
16531;SDS011;8378;57.698;11.958;2022-12-18T05:08:58;4.10;;;3.17;;
16531;SDS011;8378;57.698;11.958;2022-12-18T05:11:24;3.53;;;2.85;;
16531;SDS011;8378;57.698;11.958;2022-12-18T05:13:49;3.60;;;2.97;;
16531;SDS011;8378;57.698;11.958;2022-12-18T05:16:15;3.20;;;2.80;;
16531;SDS011;8378;57.698;11.958;2022-12-18T05:18:41;3.20;;;2.80;;
16531;SDS011;8378;57.698;11.958;2022-12-18T05:21:06;3.67;;;2.72;;
16531;SDS011;8378;57.698;11.958;2022-12-18T05:23:35;3.45;;;3.00;;
16531;SDS011;8378;57.698;11.958;2022-12-18T05:26:02;3.95;;;2.80;;
16531;SDS011;8378;57.698;11.958;2022-12-18T05:28:30;3.80;;;2.90;;
16531;SDS011;8378;57.698;11.958;2022-12-18T05:30:58;2.95;;;2.65;;
16531;SDS011;8378;57.698;11.958;2022-12-18T05:33:26;3.17;;;2.70;;
16531;SDS011;8378;57.698;11.958;2022-12-18T05:35:56;3.38;;;2.67;;
16531;SDS011;8378;57.698;11.958;2022-12-18T05:38:24;3.00;;;2.30;;
16531;SDS011;8378;57.698;11.958;2022-12-18T05:40:51;3.05;;;2.65;;
16531;SDS011;8378;57.698;11.958;2022-12-18T05:43:17;3.03;;;2.53;;
16531;SDS011;8378;57.698;11.958;2022-12-18T05:45:44;3.15;;;2.45;;
16531;SDS011;8378;57.698;11.958;2022-12-18T05:48:13;3.08;;;2.28;;
16531;SDS011;8378;57.698;11.958;2022-12-18T05:50:40;3.28;;;2.47;;
16531;SDS011;8378;57.698;11.958;2022-12-18T05:53:07;2.60;;;2.10;;
16531;SDS011;8378;57.698;11.958;2022-12-18T05:55:37;2.58;;;2.38;;
16531;SDS011;8378;57.698;11.958;2022-12-18T05:58:04;2.40;;;2.20;;
16531;SDS011;8378;57.698;11.958;2022-12-18T06:00:32;4.05;;;2.05;;
16531;SDS011;8378;57.698;11.958;2022-12-18T06:02:59;2.42;;;2.20;;
16531;SDS011;8378;57.698;11.958;2022-12-18T06:05:25;2.78;;;2.35;;
16531;SDS011;8378;57.698;11.958;2022-12-18T06:07:52;2.75;;;2.00;;
16531;SDS011;8378;57.698;11.958;2022-12-18T06:10:18;2.53;;;2.30;;
16531;SDS011;8378;57.698;11.958;2022-12-18T06:12:43;2.75;;;1.90;;
16531;SDS011;8378;57.698;11.958;2022-12-18T06:15:09;2.72;;;2.00;;
16531;SDS011;8378;57.698;11.958;2022-12-18T06:17:35;3.08;;;2.10;;
16531;SDS011;8378;57.698;11.958;2022-12-18T06:20:01;2.28;;;2.00;;
16531;SDS011;8378;57.698;11.958;2022-12-18T06:22:27;2.30;;;1.77;;
16531;SDS011;8378;57.698;11.958;2022-12-18T06:24:55;2.63;;;1.92;;
16531;SDS011;8378;57.698;11.958;2022-12-18T06:27:20;2.35;;;2.00;;
16531;SDS011;8378;57.698;11.958;2022-12-18T06:29:46;3.15;;;1.92;;
16531;SDS011;8378;57.698;11.958;2022-12-18T06:32:12;1.95;;;1.75;;
16531;SDS011;8378;57.698;11.958;2022-12-18T06:34:38;2.75;;;1.90;;
16531;SDS011;8378;57.698;11.958;2022-12-18T06:37:03;2.28;;;1.90;;
16531;SDS011;8378;57.698;11.958;2022-12-18T06:39:29;2.47;;;2.05;;
16531;SDS011;8378;57.698;11.958;2022-12-18T06:41:55;2.45;;;1.90;;
16531;SDS011;8378;57.698;11.958;2022-12-18T06:44:20;2.10;;;1.90;;
16531;SDS011;8378;57.698;11.958;2022-12-18T06:46:46;2.35;;;1.80;;
16531;SDS011;8378;57.698;11.958;2022-12-18T06:49:12;2.00;;;1.77;;
16531;SDS011;8378;57.698;11.958;2022-12-18T06:51:37;2.75;;;2.10;;
16531;SDS011;8378;57.698;11.958;2022-12-18T06:54:03;3.38;;;2.00;;
16531;SDS011;8378;57.698;11.958;2022-12-18T06:56:29;2.08;;;1.70;;
16531;SDS011;8378;57.698;11.958;2022-12-18T06:58:54;2.97;;;1.85;;
16531;SDS011;8378;57.698;11.958;2022-12-18T07:01:20;1.75;;;1.65;;
16531;SDS011;8378;57.698;11.958;2022-12-18T07:03:46;1.95;;;1.60;;
16531;SDS011;8378;57.698;11.958;2022-12-18T07:06:21;1.75;;;1.60;;
16531;SDS011;8378;57.698;11.958;2022-12-18T07:08:48;2.25;;;1.65;;
16531;SDS011;8378;57.698;11.958;2022-12-18T07:11:15;2.20;;;1.70;;
16531;SDS011;8378;57.698;11.958;2022-12-18T07:13:41;2.85;;;1.70;;
16531;SDS011;8378;57.698;11.958;2022-12-18T07:16:08;1.77;;;1.67;;
16531;SDS011;8378;57.698;11.958;2022-12-18T07:18:35;1.95;;;1.60;;
16531;SDS011;8378;57.698;11.958;2022-12-18T07:21:13;2.17;;;1.63;;
16531;SDS011;8378;57.698;11.958;2022-12-18T07:23:40;2.20;;;1.80;;
16531;SDS011;8378;57.698;11.958;2022-12-18T07:26:10;1.70;;;1.35;;
16531;SDS011;8378;57.698;11.958;2022-12-18T07:28:38;3.05;;;1.80;;
16531;SDS011;8378;57.698;11.958;2022-12-18T07:31:10;1.95;;;1.48;;
16531;SDS011;8378;57.698;11.958;2022-12-18T07:33:37;1.70;;;1.52;;
16531;SDS011;8378;57.698;11.958;2022-12-18T07:36:03;2.28;;;1.80;;
16531;SDS011;8378;57.698;11.958;2022-12-18T07:38:31;1.95;;;1.50;;
16531;SDS011;8378;57.698;11.958;2022-12-18T07:41:01;2.47;;;1.52;;
16531;SDS011;8378;57.698;11.958;2022-12-18T07:43:31;1.85;;;1.48;;
16531;SDS011;8378;57.698;11.958;2022-12-18T07:45:56;3.17;;;1.67;;
16531;SDS011;8378;57.698;11.958;2022-12-18T07:48:23;3.10;;;1.80;;
16531;SDS011;8378;57.698;11.958;2022-12-18T07:50:48;3.47;;;1.90;;
16531;SDS011;8378;57.698;11.958;2022-12-18T07:53:14;1.98;;;1.58;;
16531;SDS011;8378;57.698;11.958;2022-12-18T07:55:40;2.67;;;1.75;;
16531;SDS011;8378;57.698;11.958;2022-12-18T07:58:06;2.47;;;1.80;;
16531;SDS011;8378;57.698;11.958;2022-12-18T08:00:32;2.60;;;1.83;;
16531;SDS011;8378;57.698;11.958;2022-12-18T08:02:58;2.85;;;1.70;;
16531;SDS011;8378;57.698;11.958;2022-12-18T08:05:23;3.40;;;1.95;;
16531;SDS011;8378;57.698;11.958;2022-12-18T08:07:49;3.47;;;1.80;;
16531;SDS011;8378;57.698;11.958;2022-12-18T08:10:15;6.20;;;2.22;;
16531;SDS011;8378;57.698;11.958;2022-12-18T08:12:41;2.65;;;1.70;;
16531;SDS011;8378;57.698;11.958;2022-12-18T08:15:06;6.80;;;2.25;;
16531;SDS011;8378;57.698;11.958;2022-12-18T08:17:32;4.50;;;2.05;;
16531;SDS011;8378;57.698;11.958;2022-12-18T08:19:58;3.67;;;1.90;;
16531;SDS011;8378;57.698;11.958;2022-12-18T08:22:24;3.80;;;1.80;;
16531;SDS011;8378;57.698;11.958;2022-12-18T08:24:49;3.63;;;1.80;;
16531;SDS011;8378;57.698;11.958;2022-12-18T08:27:15;4.68;;;1.80;;
16531;SDS011;8378;57.698;11.958;2022-12-18T08:29:41;3.47;;;1.80;;
16531;SDS011;8378;57.698;11.958;2022-12-18T08:32:06;3.75;;;1.80;;
16531;SDS011;8378;57.698;11.958;2022-12-18T08:34:32;2.75;;;1.73;;
16531;SDS011;8378;57.698;11.958;2022-12-18T08:36:58;3.72;;;1.85;;
16531;SDS011;8378;57.698;11.958;2022-12-18T08:39:23;2.75;;;1.75;;
16531;SDS011;8378;57.698;11.958;2022-12-18T08:41:49;2.42;;;1.95;;
16531;SDS011;8378;57.698;11.958;2022-12-18T08:44:33;4.68;;;2.22;;
16531;SDS011;8378;57.698;11.958;2022-12-18T08:47:02;3.70;;;2.15;;
16531;SDS011;8378;57.698;11.958;2022-12-18T08:49:28;5.88;;;2.35;;
16531;SDS011;8378;57.698;11.958;2022-12-18T08:51:56;4.03;;;2.20;;
16531;SDS011;8378;57.698;11.958;2022-12-18T08:54:22;4.25;;;2.38;;
16531;SDS011;8378;57.698;11.958;2022-12-18T08:56:49;3.60;;;2.30;;
16531;SDS011;8378;57.698;11.958;2022-12-18T08:59:15;5.32;;;2.30;;
16531;SDS011;8378;57.698;11.958;2022-12-18T09:01:41;3.85;;;2.17;;
16531;SDS011;8378;57.698;11.958;2022-12-18T09:04:07;4.18;;;2.15;;
16531;SDS011;8378;57.698;11.958;2022-12-18T09:06:36;3.45;;;2.47;;
16531;SDS011;8378;57.698;11.958;2022-12-18T09:09:02;3.92;;;2.22;;
16531;SDS011;8378;57.698;11.958;2022-12-18T09:11:29;2.95;;;2.00;;
16531;SDS011;8378;57.698;11.958;2022-12-18T09:13:56;3.05;;;2.15;;
16531;SDS011;8378;57.698;11.958;2022-12-18T09:16:23;3.55;;;2.40;;
16531;SDS011;8378;57.698;11.958;2022-12-18T09:18:49;3.17;;;2.13;;
16531;SDS011;8378;57.698;11.958;2022-12-18T09:21:16;4.32;;;2.30;;
16531;SDS011;8378;57.698;11.958;2022-12-18T09:23:43;4.82;;;2.22;;
16531;SDS011;8378;57.698;11.958;2022-12-18T09:26:14;3.83;;;2.35;;
16531;SDS011;8378;57.698;11.958;2022-12-18T09:28:39;5.35;;;2.53;;
16531;SDS011;8378;57.698;11.958;2022-12-18T09:31:06;6.75;;;3.30;;
16531;SDS011;8378;57.698;11.958;2022-12-18T09:33:36;7.00;;;3.50;;
16531;SDS011;8378;57.698;11.958;2022-12-18T09:36:02;7.22;;;3.22;;
16531;SDS011;8378;57.698;11.958;2022-12-18T09:38:29;7.82;;;3.38;;
16531;SDS011;8378;57.698;11.958;2022-12-18T09:41:00;10.27;;;3.58;;
16531;SDS011;8378;57.698;11.958;2022-12-18T09:43:35;12.55;;;3.70;;
16531;SDS011;8378;57.698;11.958;2022-12-18T09:46:11;10.68;;;3.50;;
16531;SDS011;8378;57.698;11.958;2022-12-18T09:49:11;7.45;;;3.30;;
16531;SDS011;8378;57.698;11.958;2022-12-18T09:51:45;13.02;;;3.65;;
16531;SDS011;8378;57.698;11.958;2022-12-18T09:54:22;9.27;;;3.17;;
16531;SDS011;8378;57.698;11.958;2022-12-18T09:56:54;10.77;;;3.20;;
16531;SDS011;8378;57.698;11.958;2022-12-18T09:59:36;10.10;;;3.35;;
16531;SDS011;8378;57.698;11.958;2022-12-18T10:02:15;8.95;;;3.10;;
16531;SDS011;8378;57.698;11.958;2022-12-18T10:04:47;11.43;;;3.17;;
16531;SDS011;8378;57.698;11.958;2022-12-18T10:10:25;8.75;;;2.95;;
16531;SDS011;8378;57.698;11.958;2022-12-18T10:15:32;5.25;;;2.63;;
16531;SDS011;8378;57.698;11.958;2022-12-18T10:20:51;5.22;;;2.33;;
16531;SDS011;8378;57.698;11.958;2022-12-18T10:26:12;5.53;;;2.58;;
16531;SDS011;8378;57.698;11.958;2022-12-18T10:28:38;5.03;;;2.63;;
16531;SDS011;8378;57.698;11.958;2022-12-18T10:31:15;4.35;;;2.40;;
16531;SDS011;8378;57.698;11.958;2022-12-18T10:33:43;3.13;;;2.30;;
16531;SDS011;8378;57.698;11.958;2022-12-18T10:36:09;4.03;;;2.35;;
16531;SDS011;8378;57.698;11.958;2022-12-18T10:38:35;3.78;;;2.45;;
16531;SDS011;8378;57.698;11.958;2022-12-18T10:41:02;3.08;;;2.13;;
16531;SDS011;8378;57.698;11.958;2022-12-18T10:43:28;3.03;;;2.13;;
16531;SDS011;8378;57.698;11.958;2022-12-18T10:48:34;4.18;;;2.35;;
16531;SDS011;8378;57.698;11.958;2022-12-18T10:51:04;3.47;;;2.35;;
16531;SDS011;8378;57.698;11.958;2022-12-18T10:53:31;2.80;;;2.13;;
16531;SDS011;8378;57.698;11.958;2022-12-18T10:56:03;3.63;;;1.98;;
16531;SDS011;8378;57.698;11.958;2022-12-18T10:58:31;3.17;;;2.20;;
16531;SDS011;8378;57.698;11.958;2022-12-18T11:01:09;3.38;;;2.40;;
16531;SDS011;8378;57.698;11.958;2022-12-18T11:06:24;4.60;;;2.50;;
16531;SDS011;8378;57.698;11.958;2022-12-18T11:08:58;2.83;;;2.10;;
16531;SDS011;8378;57.698;11.958;2022-12-18T11:11:29;3.75;;;2.15;;
16531;SDS011;8378;57.698;11.958;2022-12-18T11:14:06;4.95;;;2.30;;
16531;SDS011;8378;57.698;11.958;2022-12-18T11:16:43;3.08;;;1.88;;
16531;SDS011;8378;57.698;11.958;2022-12-18T11:19:17;4.47;;;1.77;;
16531;SDS011;8378;57.698;11.958;2022-12-18T11:22:21;2.85;;;2.00;;
16531;SDS011;8378;57.698;11.958;2022-12-18T11:24:53;3.22;;;2.03;;
16531;SDS011;8378;57.698;11.958;2022-12-18T11:27:22;2.75;;;2.03;;
16531;SDS011;8378;57.698;11.958;2022-12-18T11:29:49;3.08;;;2.10;;
16531;SDS011;8378;57.698;11.958;2022-12-18T11:32:25;3.45;;;2.10;;
16531;SDS011;8378;57.698;11.958;2022-12-18T11:35:15;2.38;;;1.85;;
16531;SDS011;8378;57.698;11.958;2022-12-18T11:37:47;3.83;;;2.25;;
16531;SDS011;8378;57.698;11.958;2022-12-18T11:40:26;2.78;;;2.08;;
16531;SDS011;8378;57.698;11.958;2022-12-18T11:42:59;3.15;;;2.10;;
16531;SDS011;8378;57.698;11.958;2022-12-18T11:45:40;2.00;;;1.80;;
16531;SDS011;8378;57.698;11.958;2022-12-18T11:51:02;3.05;;;2.00;;
16531;SDS011;8378;57.698;11.958;2022-12-18T11:53:34;2.63;;;1.80;;
16531;SDS011;8378;57.698;11.958;2022-12-18T11:56:27;2.97;;;1.95;;
16531;SDS011;8378;57.698;11.958;2022-12-18T11:59:04;2.70;;;2.20;;
16531;SDS011;8378;57.698;11.958;2022-12-18T12:05:12;3.03;;;2.10;;
16531;SDS011;8378;57.698;11.958;2022-12-18T12:08:24;2.70;;;1.90;;
16531;SDS011;8378;57.698;11.958;2022-12-18T12:11:23;3.13;;;2.17;;
16531;SDS011;8378;57.698;11.958;2022-12-18T12:14:18;3.05;;;1.90;;
16531;SDS011;8378;57.698;11.958;2022-12-18T12:16:57;2.80;;;2.00;;
16531;SDS011;8378;57.698;11.958;2022-12-18T12:22:09;2.67;;;2.03;;
16531;SDS011;8378;57.698;11.958;2022-12-18T12:27:52;3.97;;;2.65;;
16531;SDS011;8378;57.698;11.958;2022-12-18T12:30:51;2.22;;;2.03;;
16531;SDS011;8378;57.698;11.958;2022-12-18T12:36:29;3.13;;;1.88;;
16531;SDS011;8378;57.698;11.958;2022-12-18T12:39:19;3.03;;;2.38;;
16531;SDS011;8378;57.698;11.958;2022-12-18T12:41:48;3.03;;;1.95;;
16531;SDS011;8378;57.698;11.958;2022-12-18T12:44:33;2.47;;;2.08;;
16531;SDS011;8378;57.698;11.958;2022-12-18T12:50:06;4.25;;;2.22;;
16531;SDS011;8378;57.698;11.958;2022-12-18T12:52:43;3.58;;;2.22;;
16531;SDS011;8378;57.698;11.958;2022-12-18T12:55:24;2.50;;;1.88;;
16531;SDS011;8378;57.698;11.958;2022-12-18T13:00:43;2.60;;;1.88;;
16531;SDS011;8378;57.698;11.958;2022-12-18T13:08:59;2.65;;;2.17;;
16531;SDS011;8378;57.698;11.958;2022-12-18T13:11:38;2.78;;;2.30;;
16531;SDS011;8378;57.698;11.958;2022-12-18T13:14:29;3.65;;;2.00;;
16531;SDS011;8378;57.698;11.958;2022-12-18T13:22:39;2.30;;;1.90;;
16531;SDS011;8378;57.698;11.958;2022-12-18T13:28:16;3.58;;;2.08;;
16531;SDS011;8378;57.698;11.958;2022-12-18T13:30:47;2.00;;;1.77;;
16531;SDS011;8378;57.698;11.958;2022-12-18T13:41:01;2.63;;;1.63;;
16531;SDS011;8378;57.698;11.958;2022-12-18T13:51:40;1.60;;;1.50;;
16531;SDS011;8378;57.698;11.958;2022-12-18T13:54:17;2.15;;;1.58;;
16531;SDS011;8378;57.698;11.958;2022-12-18T13:56:46;3.30;;;2.05;;
16531;SDS011;8378;57.698;11.958;2022-12-18T13:59:20;3.40;;;1.85;;
16531;SDS011;8378;57.698;11.958;2022-12-18T14:01:54;1.88;;;1.60;;
16531;SDS011;8378;57.698;11.958;2022-12-18T14:06:57;2.35;;;1.70;;
16531;SDS011;8378;57.698;11.958;2022-12-18T14:09:27;3.05;;;1.77;;
16531;SDS011;8378;57.698;11.958;2022-12-18T14:11:55;2.80;;;1.48;;
16531;SDS011;8378;57.698;11.958;2022-12-18T14:14:46;1.98;;;1.60;;
16531;SDS011;8378;57.698;11.958;2022-12-18T14:17:14;2.13;;;1.77;;
16531;SDS011;8378;57.698;11.958;2022-12-18T14:19:41;3.13;;;1.77;;
16531;SDS011;8378;57.698;11.958;2022-12-18T14:22:15;2.67;;;1.90;;
16531;SDS011;8378;57.698;11.958;2022-12-18T14:24:46;2.65;;;1.77;;
16531;SDS011;8378;57.698;11.958;2022-12-18T14:27:19;1.60;;;1.50;;
16531;SDS011;8378;57.698;11.958;2022-12-18T14:29:50;2.13;;;1.70;;
16531;SDS011;8378;57.698;11.958;2022-12-18T14:32:19;2.78;;;2.05;;
16531;SDS011;8378;57.698;11.958;2022-12-18T14:34:49;3.05;;;2.40;;
16531;SDS011;8378;57.698;11.958;2022-12-18T14:37:16;3.10;;;2.30;;
16531;SDS011;8378;57.698;11.958;2022-12-18T14:39:54;4.07;;;2.42;;
16531;SDS011;8378;57.698;11.958;2022-12-18T14:42:30;5.25;;;2.20;;
16531;SDS011;8378;57.698;11.958;2022-12-18T14:48:07;3.85;;;1.90;;
16531;SDS011;8378;57.698;11.958;2022-12-18T14:50:33;3.53;;;2.03;;
16531;SDS011;8378;57.698;11.958;2022-12-18T14:52:59;3.20;;;2.30;;
16531;SDS011;8378;57.698;11.958;2022-12-18T14:55:25;4.43;;;2.10;;
16531;SDS011;8378;57.698;11.958;2022-12-18T14:57:54;3.28;;;2.30;;
16531;SDS011;8378;57.698;11.958;2022-12-18T15:00:21;2.83;;;2.00;;
16531;SDS011;8378;57.698;11.958;2022-12-18T15:02:55;2.38;;;1.73;;
16531;SDS011;8378;57.698;11.958;2022-12-18T15:05:27;3.55;;;2.15;;
16531;SDS011;8378;57.698;11.958;2022-12-18T15:07:55;4.15;;;2.05;;
16531;SDS011;8378;57.698;11.958;2022-12-18T15:10:23;3.05;;;2.20;;
16531;SDS011;8378;57.698;11.958;2022-12-18T15:15:55;2.95;;;2.17;;
16531;SDS011;8378;57.698;11.958;2022-12-18T15:18:26;2.97;;;2.30;;
16531;SDS011;8378;57.698;11.958;2022-12-18T15:20:57;3.40;;;2.30;;
16531;SDS011;8378;57.698;11.958;2022-12-18T15:23:45;3.20;;;2.00;;
16531;SDS011;8378;57.698;11.958;2022-12-18T15:26:19;3.33;;;2.22;;
16531;SDS011;8378;57.698;11.958;2022-12-18T15:36:19;3.10;;;2.45;;
16531;SDS011;8378;57.698;11.958;2022-12-18T15:38:47;3.30;;;2.72;;
16531;SDS011;8378;57.698;11.958;2022-12-18T15:41:14;4.38;;;3.10;;
16531;SDS011;8378;57.698;11.958;2022-12-18T15:43:41;3.58;;;3.03;;
16531;SDS011;8378;57.698;11.958;2022-12-18T15:46:09;3.55;;;2.95;;
16531;SDS011;8378;57.698;11.958;2022-12-18T15:48:41;5.53;;;3.60;;
16531;SDS011;8378;57.698;11.958;2022-12-18T15:51:10;4.68;;;3.63;;
16531;SDS011;8378;57.698;11.958;2022-12-18T15:53:50;8.27;;;4.93;;
16531;SDS011;8378;57.698;11.958;2022-12-18T15:56:19;8.70;;;5.05;;
16531;SDS011;8378;57.698;11.958;2022-12-18T15:59:10;8.88;;;5.40;;
16531;SDS011;8378;57.698;11.958;2022-12-18T16:01:38;10.15;;;5.80;;
16531;SDS011;8378;57.698;11.958;2022-12-18T16:04:04;10.23;;;5.85;;
16531;SDS011;8378;57.698;11.958;2022-12-18T16:06:29;7.72;;;5.78;;
16531;SDS011;8378;57.698;11.958;2022-12-18T16:08:55;11.07;;;5.80;;
16531;SDS011;8378;57.698;11.958;2022-12-18T16:11:21;11.82;;;7.10;;
16531;SDS011;8378;57.698;11.958;2022-12-18T16:16:43;11.60;;;6.45;;
16531;SDS011;8378;57.698;11.958;2022-12-18T16:19:09;16.70;;;6.88;;
16531;SDS011;8378;57.698;11.958;2022-12-18T16:21:35;14.05;;;6.93;;
16531;SDS011;8378;57.698;11.958;2022-12-18T16:24:01;7.88;;;6.18;;
16531;SDS011;8378;57.698;11.958;2022-12-18T16:26:26;9.75;;;6.10;;
16531;SDS011;8378;57.698;11.958;2022-12-18T16:28:52;8.80;;;5.95;;
16531;SDS011;8378;57.698;11.958;2022-12-18T16:31:18;11.30;;;6.13;;
16531;SDS011;8378;57.698;11.958;2022-12-18T16:33:44;11.35;;;5.65;;
16531;SDS011;8378;57.698;11.958;2022-12-18T16:36:09;9.90;;;5.35;;
16531;SDS011;8378;57.698;11.958;2022-12-18T16:38:35;9.23;;;6.13;;
16531;SDS011;8378;57.698;11.958;2022-12-18T16:41:00;8.35;;;6.10;;
16531;SDS011;8378;57.698;11.958;2022-12-18T16:43:44;13.23;;;7.72;;
16531;SDS011;8378;57.698;11.958;2022-12-18T16:46:10;9.45;;;7.28;;
16531;SDS011;8378;57.698;11.958;2022-12-18T16:48:36;9.52;;;6.80;;
16531;SDS011;8378;57.698;11.958;2022-12-18T16:51:02;10.50;;;7.13;;
16531;SDS011;8378;57.698;11.958;2022-12-18T16:53:28;12.23;;;7.35;;
16531;SDS011;8378;57.698;11.958;2022-12-18T16:55:55;7.15;;;6.35;;
16531;SDS011;8378;57.698;11.958;2022-12-18T16:58:21;9.35;;;6.22;;
16531;SDS011;8378;57.698;11.958;2022-12-18T17:00:46;10.82;;;6.72;;
16531;SDS011;8378;57.698;11.958;2022-12-18T17:03:12;10.63;;;6.68;;
16531;SDS011;8378;57.698;11.958;2022-12-18T17:05:38;9.43;;;6.53;;